Chesterfield, Connecticut
Current Conditions -  °F | °C
As of 2:56 PM on Wednesday 26 Nov 2014 (Local Time) from KGON Reporting Station
Moderate Rain Moderate Rain  
Wind Chill: 25°   Ceiling: 900
Heat Index: 35°   Visibility: 1.7mi
Dew Point: 35°   Wind: 16mph
Humidity: 100%   Direction: 20°NNE
Pressure: 29.87"   Gusts: 28mph
Location:  41.4669°N, 72.1896°W
Report Text: KGON 261956Z 02014G24KT 1 3/4SM RA BR BKN009 BKN045 OVC070 02/02 A2987 RMK AO2 PK WND 03026/1944 SLP115 P0020 T00170017
Loading
Personal Weather Stations






























Interactive Weather Map New forecast layout! Learn more

10-Day Weather Forecast

Advertisements
Track Severe Weather on mobile